sensor_id;sensor_type;location;lat;lon;timestamp;pressure;altitude;pressure_sealevel;temperature;humidity
77574;BME280;66710;48.868;9.080;2023-03-14T00:00:12;96372.25;;;9.19;86.41
77574;BME280;66710;48.868;9.080;2023-03-14T00:02:39;96369.84;;;9.32;84.95
77574;BME280;66710;48.868;9.080;2023-03-14T00:05:05;96347.41;;;9.26;85.53
77574;BME280;66710;48.868;9.080;2023-03-14T00:07:36;96370.47;;;9.28;85.40
77574;BME280;66710;48.868;9.080;2023-03-14T00:10:10;96358.78;;;9.28;84.84
77574;BME280;66710;48.868;9.080;2023-03-14T00:12:35;96375.16;;;9.37;84.82
77574;BME280;66710;48.868;9.080;2023-03-14T00:15:01;96360.38;;;9.29;85.23
77574;BME280;66710;48.868;9.080;2023-03-14T00:17:29;96355.56;;;9.26;86.16
77574;BME280;66710;48.868;9.080;2023-03-14T00:19:54;96351.25;;;9.25;86.16
77574;BME280;66710;48.868;9.080;2023-03-14T00:22:20;96350.88;;;9.18;86.32
77574;BME280;66710;48.868;9.080;2023-03-14T00:24:46;96354.56;;;9.22;85.83
77574;BME280;66710;48.868;9.080;2023-03-14T00:27:12;96350.91;;;9.26;85.91
77574;BME280;66710;48.868;9.080;2023-03-14T00:29:37;96355.06;;;9.24;86.06
77574;BME280;66710;48.868;9.080;2023-03-14T00:32:03;96355.97;;;9.19;86.42
77574;BME280;66710;48.868;9.080;2023-03-14T00:34:29;96384.66;;;9.25;85.90
77574;BME280;66710;48.868;9.080;2023-03-14T00:36:54;96368.06;;;9.27;85.59
77574;BME280;66710;48.868;9.080;2023-03-14T00:39:20;96363.22;;;9.24;85.91
77574;BME280;66710;48.868;9.080;2023-03-14T00:41:45;96364.31;;;9.23;86.06
77574;BME280;66710;48.868;9.080;2023-03-14T00:44:10;96359.22;;;9.21;85.81
77574;BME280;66710;48.868;9.080;2023-03-14T00:46:36;96356.78;;;9.20;85.56
77574;BME280;66710;48.868;9.080;2023-03-14T00:49:01;96365.34;;;9.27;85.26
77574;BME280;66710;48.868;9.080;2023-03-14T00:51:26;96370.97;;;9.17;86.18
77574;BME280;66710;48.868;9.080;2023-03-14T00:53:52;96389.69;;;9.18;85.91
77574;BME280;66710;48.868;9.080;2023-03-14T00:56:17;96384.56;;;9.17;86.23
77574;BME280;66710;48.868;9.080;2023-03-14T00:58:43;96384.84;;;9.15;85.96
77574;BME280;66710;48.868;9.080;2023-03-14T01:01:12;96399.63;;;9.23;85.48
77574;BME280;66710;48.868;9.080;2023-03-14T01:03:37;96388.47;;;9.24;85.52
77574;BME280;66710;48.868;9.080;2023-03-14T01:06:11;96384.38;;;9.13;85.96
77574;BME280;66710;48.868;9.080;2023-03-14T01:08:37;96390.00;;;9.17;85.95
77574;BME280;66710;48.868;9.080;2023-03-14T01:11:10;96397.44;;;9.25;85.25
77574;BME280;66710;48.868;9.080;2023-03-14T01:13:36;96400.66;;;9.27;85.35
77574;BME280;66710;48.868;9.080;2023-03-14T01:16:03;96396.03;;;9.27;85.33
77574;BME280;66710;48.868;9.080;2023-03-14T01:18:30;96382.03;;;9.34;84.65
77574;BME280;66710;48.868;9.080;2023-03-14T01:20:55;96393.50;;;9.31;85.11
77574;BME280;66710;48.868;9.080;2023-03-14T01:23:21;96376.41;;;9.30;85.57
77574;BME280;66710;48.868;9.080;2023-03-14T01:25:46;96371.97;;;9.21;86.81
77574;BME280;66710;48.868;9.080;2023-03-14T01:28:11;96361.28;;;9.24;85.72
77574;BME280;66710;48.868;9.080;2023-03-14T01:30:37;96349.53;;;9.29;84.90
77574;BME280;66710;48.868;9.080;2023-03-14T01:33:02;96355.94;;;9.33;84.78
77574;BME280;66710;48.868;9.080;2023-03-14T01:35:27;96338.53;;;9.34;84.47
77574;BME280;66710;48.868;9.080;2023-03-14T01:37:53;96332.97;;;9.53;82.61
77574;BME280;66710;48.868;9.080;2023-03-14T01:40:18;96322.63;;;9.41;83.48
77574;BME280;66710;48.868;9.080;2023-03-14T01:42:55;96309.81;;;9.42;82.73
77574;BME280;66710;48.868;9.080;2023-03-14T01:48:43;96287.31;;;9.27;83.66
77574;BME280;66710;48.868;9.080;2023-03-14T01:51:18;96286.53;;;9.27;83.29
77574;BME280;66710;48.868;9.080;2023-03-14T01:53:45;96295.66;;;9.31;82.66
77574;BME280;66710;48.868;9.080;2023-03-14T01:56:13;96293.25;;;9.29;82.60
77574;BME280;66710;48.868;9.080;2023-03-14T01:58:41;96293.81;;;9.40;81.82
77574;BME280;66710;48.868;9.080;2023-03-14T02:01:09;96274.34;;;9.24;82.61
77574;BME280;66710;48.868;9.080;2023-03-14T02:03:39;96280.41;;;9.21;83.47
77574;BME280;66710;48.868;9.080;2023-03-14T02:06:10;96284.13;;;9.25;82.97
77574;BME280;66710;48.868;9.080;2023-03-14T02:08:37;96269.22;;;9.23;82.80
77574;BME280;66710;48.868;9.080;2023-03-14T02:11:05;96276.75;;;9.26;82.33
77574;BME280;66710;48.868;9.080;2023-03-14T02:13:32;96273.75;;;9.27;81.43
77574;BME280;66710;48.868;9.080;2023-03-14T02:15:57;96274.78;;;9.40;79.93
77574;BME280;66710;48.868;9.080;2023-03-14T02:18:23;96261.03;;;9.37;80.19
77574;BME280;66710;48.868;9.080;2023-03-14T02:21:03;96260.41;;;9.40;79.62
77574;BME280;66710;48.868;9.080;2023-03-14T02:26:01;96248.56;;;9.36;78.81
77574;BME280;66710;48.868;9.080;2023-03-14T02:28:28;96241.63;;;9.29;78.99
77574;BME280;66710;48.868;9.080;2023-03-14T02:30:54;96238.19;;;9.38;78.32
77574;BME280;66710;48.868;9.080;2023-03-14T02:33:20;96229.06;;;9.34;77.92
77574;BME280;66710;48.868;9.080;2023-03-14T02:35:59;96243.25;;;9.30;78.46
77574;BME280;66710;48.868;9.080;2023-03-14T02:38:35;96241.88;;;9.42;77.76
77574;BME280;66710;48.868;9.080;2023-03-14T02:41:02;96252.97;;;9.32;78.34
77574;BME280;66710;48.868;9.080;2023-03-14T02:43:28;96245.78;;;9.27;78.34
77574;BME280;66710;48.868;9.080;2023-03-14T02:45:53;96261.50;;;9.39;77.71
77574;BME280;66710;48.868;9.080;2023-03-14T02:48:25;96255.50;;;9.28;78.59
77574;BME280;66710;48.868;9.080;2023-03-14T02:50:52;96239.72;;;9.30;77.92
77574;BME280;66710;48.868;9.080;2023-03-14T02:53:23;96237.75;;;9.22;78.84
77574;BME280;66710;48.868;9.080;2023-03-14T02:55:50;96225.81;;;9.32;78.11
77574;BME280;66710;48.868;9.080;2023-03-14T02:58:16;96221.63;;;9.25;78.55
77574;BME280;66710;48.868;9.080;2023-03-14T03:00:42;96231.19;;;9.23;79.03
77574;BME280;66710;48.868;9.080;2023-03-14T03:03:08;96211.06;;;9.24;78.75
77574;BME280;66710;48.868;9.080;2023-03-14T03:05:33;96216.63;;;9.19;78.51
77574;BME280;66710;48.868;9.080;2023-03-14T03:07:59;96197.22;;;9.11;79.50
77574;BME280;66710;48.868;9.080;2023-03-14T03:10:25;96214.19;;;9.17;78.46
77574;BME280;66710;48.868;9.080;2023-03-14T03:12:51;96206.88;;;9.18;78.14
77574;BME280;66710;48.868;9.080;2023-03-14T03:15:17;96188.47;;;9.15;78.17
77574;BME280;66710;48.868;9.080;2023-03-14T03:17:42;96183.16;;;9.09;78.89
77574;BME280;66710;48.868;9.080;2023-03-14T03:20:09;96182.72;;;9.16;77.91
77574;BME280;66710;48.868;9.080;2023-03-14T03:22:35;96186.34;;;9.11;78.08
77574;BME280;66710;48.868;9.080;2023-03-14T03:25:01;96179.31;;;9.10;77.86
77574;BME280;66710;48.868;9.080;2023-03-14T03:27:30;96179.28;;;9.02;78.35
77574;BME280;66710;48.868;9.080;2023-03-14T03:29:55;96176.84;;;9.00;77.86
77574;BME280;66710;48.868;9.080;2023-03-14T03:32:21;96167.88;;;9.00;78.45
77574;BME280;66710;48.868;9.080;2023-03-14T03:34:46;96182.72;;;8.94;77.88
77574;BME280;66710;48.868;9.080;2023-03-14T03:37:11;96172.34;;;8.96;78.07
77574;BME280;66710;48.868;9.080;2023-03-14T03:39:37;96164.00;;;8.92;78.41
77574;BME280;66710;48.868;9.080;2023-03-14T03:42:02;96161.09;;;8.88;78.52
77574;BME280;66710;48.868;9.080;2023-03-14T03:44:28;96152.97;;;8.88;78.36
77574;BME280;66710;48.868;9.080;2023-03-14T03:46:53;96159.06;;;8.94;77.30
77574;BME280;66710;48.868;9.080;2023-03-14T03:49:18;96149.13;;;9.12;75.65
77574;BME280;66710;48.868;9.080;2023-03-14T03:51:43;96154.38;;;8.86;77.99
77574;BME280;66710;48.868;9.080;2023-03-14T03:54:09;96161.91;;;8.89;77.02
77574;BME280;66710;48.868;9.080;2023-03-14T03:56:34;96161.25;;;8.69;78.32
77574;BME280;66710;48.868;9.080;2023-03-14T03:59:00;96152.50;;;8.72;78.00
77574;BME280;66710;48.868;9.080;2023-03-14T04:01:25;96147.94;;;8.82;76.26
77574;BME280;66710;48.868;9.080;2023-03-14T04:03:50;96165.78;;;8.74;77.63
77574;BME280;66710;48.868;9.080;2023-03-14T04:06:16;96158.88;;;8.90;75.63
77574;BME280;66710;48.868;9.080;2023-03-14T04:08:41;96154.13;;;8.73;76.73
77574;BME280;66710;48.868;9.080;2023-03-14T04:11:07;96139.84;;;8.68;76.85
77574;BME280;66710;48.868;9.080;2023-03-14T04:13:32;96139.16;;;8.62;76.77
77574;BME280;66710;48.868;9.080;2023-03-14T04:15:58;96141.75;;;8.67;76.47
77574;BME280;66710;48.868;9.080;2023-03-14T04:18:23;96149.91;;;8.67;76.62
77574;BME280;66710;48.868;9.080;2023-03-14T04:20:53;96144.91;;;8.61;76.66
77574;BME280;66710;48.868;9.080;2023-03-14T04:23:19;96139.09;;;8.53;76.62
77574;BME280;66710;48.868;9.080;2023-03-14T04:25:44;96151.06;;;8.52;76.85
77574;BME280;66710;48.868;9.080;2023-03-14T04:28:09;96144.09;;;8.60;75.64
77574;BME280;66710;48.868;9.080;2023-03-14T04:30:34;96145.16;;;8.73;74.87
77574;BME280;66710;48.868;9.080;2023-03-14T04:33:00;96146.28;;;8.72;74.71
77574;BME280;66710;48.868;9.080;2023-03-14T04:35:26;96138.66;;;8.60;75.43
77574;BME280;66710;48.868;9.080;2023-03-14T04:37:51;96136.47;;;8.48;75.78
77574;BME280;66710;48.868;9.080;2023-03-14T04:40:17;96132.66;;;8.49;75.97
77574;BME280;66710;48.868;9.080;2023-03-14T04:42:43;96130.44;;;8.51;74.58
77574;BME280;66710;48.868;9.080;2023-03-14T04:45:08;96125.63;;;8.48;75.66
77574;BME280;66710;48.868;9.080;2023-03-14T04:47:34;96105.34;;;8.46;74.80
77574;BME280;66710;48.868;9.080;2023-03-14T04:49:59;96108.84;;;8.46;74.80
77574;BME280;66710;48.868;9.080;2023-03-14T04:52:25;96110.38;;;8.52;75.08
77574;BME280;66710;48.868;9.080;2023-03-14T04:54:50;96111.41;;;8.65;73.64
77574;BME280;66710;48.868;9.080;2023-03-14T04:57:16;96111.94;;;8.53;74.51
77574;BME280;66710;48.868;9.080;2023-03-14T04:59:41;96115.22;;;8.64;73.74
77574;BME280;66710;48.868;9.080;2023-03-14T05:02:07;96112.81;;;8.63;73.23
77574;BME280;66710;48.868;9.080;2023-03-14T05:04:32;96106.22;;;8.55;74.04
77574;BME280;66710;48.868;9.080;2023-03-14T05:06:59;96102.41;;;8.56;75.58
77574;BME280;66710;48.868;9.080;2023-03-14T05:09:24;96092.91;;;8.67;74.13
77574;BME280;66710;48.868;9.080;2023-03-14T05:11:49;96089.69;;;8.65;73.28
77574;BME280;66710;48.868;9.080;2023-03-14T05:14:15;96086.69;;;8.67;73.06
77574;BME280;66710;48.868;9.080;2023-03-14T05:16:40;96089.25;;;8.49;74.14
77574;BME280;66710;48.868;9.080;2023-03-14T05:19:05;96092.47;;;8.38;75.34
77574;BME280;66710;48.868;9.080;2023-03-14T05:21:31;96091.38;;;8.39;74.31
77574;BME280;66710;48.868;9.080;2023-03-14T05:23:56;96081.22;;;8.44;74.03
77574;BME280;66710;48.868;9.080;2023-03-14T05:26:21;96076.31;;;8.32;74.60
77574;BME280;66710;48.868;9.080;2023-03-14T05:28:47;96071.44;;;8.21;76.01
77574;BME280;66710;48.868;9.080;2023-03-14T05:31:12;96059.88;;;8.15;75.47
77574;BME280;66710;48.868;9.080;2023-03-14T05:33:37;96069.44;;;8.12;75.91
77574;BME280;66710;48.868;9.080;2023-03-14T05:36:03;96072.13;;;8.12;75.87
77574;BME280;66710;48.868;9.080;2023-03-14T05:38:28;96083.97;;;8.16;75.55
77574;BME280;66710;48.868;9.080;2023-03-14T05:40:54;96075.81;;;8.30;74.95
77574;BME280;66710;48.868;9.080;2023-03-14T05:43:19;96078.41;;;8.35;74.42
77574;BME280;66710;48.868;9.080;2023-03-14T05:45:45;96078.50;;;8.44;73.81
77574;BME280;66710;48.868;9.080;2023-03-14T05:48:10;96078.59;;;8.39;73.81
77574;BME280;66710;48.868;9.080;2023-03-14T05:50:35;96080.13;;;8.31;74.96
77574;BME280;66710;48.868;9.080;2023-03-14T05:53:01;96079.94;;;8.64;72.82
77574;BME280;66710;48.868;9.080;2023-03-14T05:55:26;96077.97;;;8.56;72.51
77574;BME280;66710;48.868;9.080;2023-03-14T05:57:53;96080.94;;;8.46;73.80
77574;BME280;66710;48.868;9.080;2023-03-14T06:00:18;96072.97;;;8.35;74.94
77574;BME280;66710;48.868;9.080;2023-03-14T06:02:44;96079.63;;;8.43;73.83
77574;BME280;66710;48.868;9.080;2023-03-14T06:05:09;96089.06;;;8.46;74.00
77574;BME280;66710;48.868;9.080;2023-03-14T06:07:34;96077.25;;;8.28;74.53
77574;BME280;66710;48.868;9.080;2023-03-14T06:10:00;96071.69;;;8.33;74.87
77574;BME280;66710;48.868;9.080;2023-03-14T06:12:25;96068.91;;;8.24;75.13
77574;BME280;66710;48.868;9.080;2023-03-14T06:14:50;96079.13;;;8.27;74.81
77574;BME280;66710;48.868;9.080;2023-03-14T06:17:16;96073.38;;;8.43;73.36
77574;BME280;66710;48.868;9.080;2023-03-14T06:19:41;96079.88;;;8.42;73.82
77574;BME280;66710;48.868;9.080;2023-03-14T06:22:07;96063.34;;;8.29;74.48
77574;BME280;66710;48.868;9.080;2023-03-14T06:24:32;96070.59;;;8.20;75.10
77574;BME280;66710;48.868;9.080;2023-03-14T06:26:57;96075.84;;;8.16;75.21
77574;BME280;66710;48.868;9.080;2023-03-14T06:29:23;96071.84;;;8.14;75.66
77574;BME280;66710;48.868;9.080;2023-03-14T06:31:48;96064.28;;;8.25;75.09
77574;BME280;66710;48.868;9.080;2023-03-14T06:34:13;96063.91;;;8.18;74.79
77574;BME280;66710;48.868;9.080;2023-03-14T06:36:39;96068.16;;;8.46;73.43
77574;BME280;66710;48.868;9.080;2023-03-14T06:39:04;96073.75;;;8.50;73.74
77574;BME280;66710;48.868;9.080;2023-03-14T06:41:30;96051.69;;;8.43;73.82
77574;BME280;66710;48.868;9.080;2023-03-14T06:43:55;96052.38;;;8.34;74.10
77574;BME280;66710;48.868;9.080;2023-03-14T06:46:21;96056.59;;;8.41;74.13
77574;BME280;66710;48.868;9.080;2023-03-14T06:48:46;96057.00;;;8.48;74.25
77574;BME280;66710;48.868;9.080;2023-03-14T06:51:11;96053.56;;;8.56;73.84
77574;BME280;66710;48.868;9.080;2023-03-14T06:53:38;96059.66;;;8.62;73.14
77574;BME280;66710;48.868;9.080;2023-03-14T06:56:04;96060.41;;;8.76;72.59
77574;BME280;66710;48.868;9.080;2023-03-14T06:58:29;96059.66;;;8.84;72.52
77574;BME280;66710;48.868;9.080;2023-03-14T07:00:55;96057.19;;;8.97;72.00
77574;BME280;66710;48.868;9.080;2023-03-14T07:03:21;96053.38;;;9.06;71.69
77574;BME280;66710;48.868;9.080;2023-03-14T07:05:47;96063.88;;;9.22;70.23
77574;BME280;66710;48.868;9.080;2023-03-14T07:08:13;96062.28;;;9.29;70.67
77574;BME280;66710;48.868;9.080;2023-03-14T07:10:38;96072.41;;;9.38;69.54
77574;BME280;66710;48.868;9.080;2023-03-14T07:13:04;96065.75;;;9.53;70.27
77574;BME280;66710;48.868;9.080;2023-03-14T07:15:29;96074.09;;;9.65;69.91
77574;BME280;66710;48.868;9.080;2023-03-14T07:17:56;96081.06;;;9.80;69.67
77574;BME280;66710;48.868;9.080;2023-03-14T07:20:21;96079.13;;;9.80;68.35
77574;BME280;66710;48.868;9.080;2023-03-14T07:22:48;96066.19;;;9.95;68.45
77574;BME280;66710;48.868;9.080;2023-03-14T07:25:14;96074.41;;;10.12;67.76
77574;BME280;66710;48.868;9.080;2023-03-14T07:27:39;96084.19;;;10.22;67.95
77574;BME280;66710;48.868;9.080;2023-03-14T07:30:05;96096.16;;;10.12;67.67
77574;BME280;66710;48.868;9.080;2023-03-14T07:32:31;96078.59;;;10.27;67.27
77574;BME280;66710;48.868;9.080;2023-03-14T07:34:56;96094.94;;;10.36;66.65
77574;BME280;66710;48.868;9.080;2023-03-14T07:37:22;96091.28;;;10.49;65.73
77574;BME280;66710;48.868;9.080;2023-03-14T07:39:47;96079.59;;;10.57;66.49
77574;BME280;66710;48.868;9.080;2023-03-14T07:42:12;96085.53;;;10.68;65.65
77574;BME280;66710;48.868;9.080;2023-03-14T07:44:38;96072.22;;;10.84;65.08
77574;BME280;66710;48.868;9.080;2023-03-14T07:47:03;96084.06;;;10.79;66.55
77574;BME280;66710;48.868;9.080;2023-03-14T07:49:28;96083.13;;;10.84;64.69
77574;BME280;66710;48.868;9.080;2023-03-14T07:51:54;96080.38;;;10.93;64.31
77574;BME280;66710;48.868;9.080;2023-03-14T07:54:19;96076.34;;;11.08;64.51
77574;BME280;66710;48.868;9.080;2023-03-14T07:56:45;96071.06;;;11.03;65.43
77574;BME280;66710;48.868;9.080;2023-03-14T07:59:10;96081.16;;;11.02;63.85
77574;BME280;66710;48.868;9.080;2023-03-14T08:01:37;96076.94;;;11.22;63.80
77574;BME280;66710;48.868;9.080;2023-03-14T08:04:02;96072.31;;;11.23;62.03
77574;BME280;66710;48.868;9.080;2023-03-14T08:06:27;96074.84;;;11.36;62.21
77574;BME280;66710;48.868;9.080;2023-03-14T08:08:53;96076.84;;;11.57;60.96
77574;BME280;66710;48.868;9.080;2023-03-14T08:11:18;96062.81;;;11.76;61.21
77574;BME280;66710;48.868;9.080;2023-03-14T08:13:43;96070.44;;;12.00;60.68
77574;BME280;66710;48.868;9.080;2023-03-14T08:16:15;96069.09;;;11.68;59.47
77574;BME280;66710;48.868;9.080;2023-03-14T08:18:40;96057.09;;;11.99;59.46
77574;BME280;66710;48.868;9.080;2023-03-14T08:21:05;96055.84;;;11.87;60.48
77574;BME280;66710;48.868;9.080;2023-03-14T08:23:30;96074.31;;;11.90;59.63
77574;BME280;66710;48.868;9.080;2023-03-14T08:25:56;96069.28;;;12.01;60.28
77574;BME280;66710;48.868;9.080;2023-03-14T08:28:21;96033.53;;;11.85;59.00
77574;BME280;66710;48.868;9.080;2023-03-14T08:30:46;96075.38;;;11.68;58.50
77574;BME280;66710;48.868;9.080;2023-03-14T08:33:11;96052.63;;;11.94;58.84
77574;BME280;66710;48.868;9.080;2023-03-14T08:35:37;96034.97;;;11.62;59.82
77574;BME280;66710;48.868;9.080;2023-03-14T08:38:03;96058.91;;;11.56;59.85
77574;BME280;66710;48.868;9.080;2023-03-14T08:40:28;96051.19;;;11.58;60.65
77574;BME280;66710;48.868;9.080;2023-03-14T08:42:54;96086.34;;;11.51;59.73
77574;BME280;66710;48.868;9.080;2023-03-14T08:45:19;96060.09;;;11.29;60.89
77574;BME280;66710;48.868;9.080;2023-03-14T08:47:44;96085.78;;;11.28;61.09
77574;BME280;66710;48.868;9.080;2023-03-14T08:50:10;96093.28;;;11.31;59.58
77574;BME280;66710;48.868;9.080;2023-03-14T08:52:36;96063.94;;;11.36;60.23
77574;BME280;66710;48.868;9.080;2023-03-14T08:55:03;96087.34;;;11.37;59.55
77574;BME280;66710;48.868;9.080;2023-03-14T08:57:29;96103.88;;;11.32;59.24
77574;BME280;66710;48.868;9.080;2023-03-14T08:59:54;96103.38;;;11.39;61.17
77574;BME280;66710;48.868;9.080;2023-03-14T09:02:20;96114.75;;;11.32;61.54
77574;BME280;66710;48.868;9.080;2023-03-14T09:04:46;96099.69;;;11.35;61.13
77574;BME280;66710;48.868;9.080;2023-03-14T09:07:11;96105.66;;;11.28;60.83
77574;BME280;66710;48.868;9.080;2023-03-14T09:09:36;96103.09;;;11.23;61.96
77574;BME280;66710;48.868;9.080;2023-03-14T09:12:02;96139.50;;;11.01;64.01
77574;BME280;66710;48.868;9.080;2023-03-14T09:14:27;96137.44;;;10.72;65.06
77574;BME280;66710;48.868;9.080;2023-03-14T09:16:53;96131.66;;;10.65;65.07
77574;BME280;66710;48.868;9.080;2023-03-14T09:19:19;96144.63;;;10.59;64.91
77574;BME280;66710;48.868;9.080;2023-03-14T09:21:45;96131.63;;;10.47;66.04
77574;BME280;66710;48.868;9.080;2023-03-14T09:24:10;96177.72;;;10.35;66.28
77574;BME280;66710;48.868;9.080;2023-03-14T09:26:35;96149.00;;;10.29;68.59
77574;BME280;66710;48.868;9.080;2023-03-14T09:29:00;96167.09;;;10.24;67.69
77574;BME280;66710;48.868;9.080;2023-03-14T09:31:26;96158.31;;;10.28;68.07
77574;BME280;66710;48.868;9.080;2023-03-14T09:33:51;96151.41;;;10.30;69.03
77574;BME280;66710;48.868;9.080;2023-03-14T09:36:17;96152.06;;;10.27;67.46
77574;BME280;66710;48.868;9.080;2023-03-14T09:38:42;96175.13;;;10.30;67.52
77574;BME280;66710;48.868;9.080;2023-03-14T09:41:35;96171.50;;;10.34;68.25
77574;BME280;66710;48.868;9.080;2023-03-14T09:44:20;96163.50;;;10.38;67.74
77574;BME280;66710;48.868;9.080;2023-03-14T09:46:50;96163.53;;;10.55;68.62
77574;BME280;66710;48.868;9.080;2023-03-14T09:49:30;96164.00;;;10.57;66.39
77574;BME280;66710;48.868;9.080;2023-03-14T09:51:59;96166.09;;;10.69;67.32
77574;BME280;66710;48.868;9.080;2023-03-14T09:54:38;96175.41;;;10.94;65.04
77574;BME280;66710;48.868;9.080;2023-03-14T09:57:11;96140.94;;;11.25;65.29
77574;BME280;66710;48.868;9.080;2023-03-14T09:59:38;96154.97;;;11.53;63.98
77574;BME280;66710;48.868;9.080;2023-03-14T10:02:22;96137.69;;;11.49;64.67
77574;BME280;66710;48.868;9.080;2023-03-14T10:04:50;96135.41;;;11.60;63.51
77574;BME280;66710;48.868;9.080;2023-03-14T10:07:18;96164.81;;;11.92;62.95
77574;BME280;66710;48.868;9.080;2023-03-14T10:09:49;96133.34;;;12.04;61.78
77574;BME280;66710;48.868;9.080;2023-03-14T10:12:15;96144.72;;;12.06;62.21
77574;BME280;66710;48.868;9.080;2023-03-14T10:14:50;96155.09;;;12.21;61.01
77574;BME280;66710;48.868;9.080;2023-03-14T10:17:18;96187.28;;;11.98;61.08
77574;BME280;66710;48.868;9.080;2023-03-14T10:19:59;96164.50;;;12.32;61.32
77574;BME280;66710;48.868;9.080;2023-03-14T10:22:29;96142.97;;;12.61;59.87
77574;BME280;66710;48.868;9.080;2023-03-14T10:24:57;96129.88;;;12.45;59.86
77574;BME280;66710;48.868;9.080;2023-03-14T10:27:32;96125.06;;;12.42;60.34
77574;BME280;66710;48.868;9.080;2023-03-14T10:30:05;96113.63;;;12.70;59.99
77574;BME280;66710;48.868;9.080;2023-03-14T10:32:38;96121.16;;;12.94;59.02
77574;BME280;66710;48.868;9.080;2023-03-14T10:37:58;96125.63;;;12.57;59.73
77574;BME280;66710;48.868;9.080;2023-03-14T10:40:30;96146.88;;;12.72;59.11
77574;BME280;66710;48.868;9.080;2023-03-14T10:42:58;96137.41;;;12.19;59.15
77574;BME280;66710;48.868;9.080;2023-03-14T10:47:49;96166.47;;;11.76;60.34
77574;BME280;66710;48.868;9.080;2023-03-14T10:50:33;96161.41;;;11.48;61.32
77574;BME280;66710;48.868;9.080;2023-03-14T10:53:02;96173.78;;;11.28;62.43
77574;BME280;66710;48.868;9.080;2023-03-14T10:55:41;96151.50;;;11.26;63.56
77574;BME280;66710;48.868;9.080;2023-03-14T10:58:19;96169.66;;;10.96;63.89
77574;BME280;66710;48.868;9.080;2023-03-14T11:00:47;96177.31;;;11.03;65.40
77574;BME280;66710;48.868;9.080;2023-03-14T11:03:16;96152.00;;;10.67;67.63
77574;BME280;66710;48.868;9.080;2023-03-14T11:05:57;96202.56;;;10.42;67.38
77574;BME280;66710;48.868;9.080;2023-03-14T11:08:31;96172.06;;;10.22;69.03
77574;BME280;66710;48.868;9.080;2023-03-14T11:13:43;96190.03;;;9.92;71.77
77574;BME280;66710;48.868;9.080;2023-03-14T11:21:56;96186.72;;;9.64;74.86
77574;BME280;66710;48.868;9.080;2023-03-14T11:29:27;96196.03;;;9.49;76.54
77574;BME280;66710;48.868;9.080;2023-03-14T11:31:57;96185.47;;;9.47;76.84
77574;BME280;66710;48.868;9.080;2023-03-14T11:34:34;96187.56;;;9.51;76.72
77574;BME280;66710;48.868;9.080;2023-03-14T11:37:45;96203.16;;;9.59;75.61
77574;BME280;66710;48.868;9.080;2023-03-14T11:40:13;96196.75;;;9.63;74.15
77574;BME280;66710;48.868;9.080;2023-03-14T11:42:41;96208.19;;;9.74;75.01
77574;BME280;66710;48.868;9.080;2023-03-14T11:45:16;96222.09;;;9.73;74.95
77574;BME280;66710;48.868;9.080;2023-03-14T11:47:44;96213.06;;;9.63;75.19
77574;BME280;66710;48.868;9.080;2023-03-14T11:50:19;96213.66;;;9.52;75.87
77574;BME280;66710;48.868;9.080;2023-03-14T11:52:56;96206.13;;;9.48;75.01
77574;BME280;66710;48.868;9.080;2023-03-14T11:55:32;96232.00;;;9.46;76.19
77574;BME280;66710;48.868;9.080;2023-03-14T11:58:26;96236.44;;;9.42;75.97
77574;BME280;66710;48.868;9.080;2023-03-14T12:00:54;96245.91;;;9.44;75.91
77574;BME280;66710;48.868;9.080;2023-03-14T12:03:36;96249.13;;;9.46;76.74
77574;BME280;66710;48.868;9.080;2023-03-14T12:08:49;96278.59;;;9.53;76.01
77574;BME280;66710;48.868;9.080;2023-03-14T12:11:35;96271.84;;;9.51;77.55
77574;BME280;66710;48.868;9.080;2023-03-14T12:14:01;96273.09;;;9.44;78.18
77574;BME280;66710;48.868;9.080;2023-03-14T12:16:33;96289.69;;;9.43;77.70
77574;BME280;66710;48.868;9.080;2023-03-14T12:19:14;96307.00;;;9.47;77.88
77574;BME280;66710;48.868;9.080;2023-03-14T12:24:38;96327.00;;;9.15;77.33
77574;BME280;66710;48.868;9.080;2023-03-14T12:27:05;96329.84;;;9.09;76.17
77574;BME280;66710;48.868;9.080;2023-03-14T12:29:32;96362.75;;;9.08;76.32
77574;BME280;66710;48.868;9.080;2023-03-14T12:34:27;96362.84;;;8.61;73.33
77574;BME280;66710;48.868;9.080;2023-03-14T12:37:02;96414.03;;;8.02;71.60
77574;BME280;66710;48.868;9.080;2023-03-14T12:45:27;96396.81;;;8.12;66.71
77574;BME280;66710;48.868;9.080;2023-03-14T12:48:09;96407.91;;;8.90;63.89
77574;BME280;66710;48.868;9.080;2023-03-14T12:50:56;96407.72;;;8.86;60.87
77574;BME280;66710;48.868;9.080;2023-03-14T12:56:45;96445.00;;;9.50;56.04
77574;BME280;66710;48.868;9.080;2023-03-14T12:59:40;96446.00;;;10.04;56.10
77574;BME280;66710;48.868;9.080;2023-03-14T13:02:28;96481.53;;;9.72;55.48
77574;BME280;66710;48.868;9.080;2023-03-14T13:05:04;96466.25;;;9.62;53.14
77574;BME280;66710;48.868;9.080;2023-03-14T13:10:18;96470.19;;;9.14;53.90
77574;BME280;66710;48.868;9.080;2023-03-14T13:13:02;96484.19;;;9.07;52.98
77574;BME280;66710;48.868;9.080;2023-03-14T13:15:34;96570.56;;;8.91;52.59
77574;BME280;66710;48.868;9.080;2023-03-14T13:20:47;96530.78;;;8.82;51.36
77574;BME280;66710;48.868;9.080;2023-03-14T13:23:23;96522.56;;;8.87;52.11
77574;BME280;66710;48.868;9.080;2023-03-14T13:25:49;96547.94;;;8.63;50.16
77574;BME280;66710;48.868;9.080;2023-03-14T13:28:15;96556.47;;;8.57;49.63
77574;BME280;66710;48.868;9.080;2023-03-14T13:30:43;96555.72;;;8.84;49.27
77574;BME280;66710;48.868;9.080;2023-03-14T13:33:18;96567.16;;;8.67;48.19
77574;BME280;66710;48.868;9.080;2023-03-14T13:35:54;96563.09;;;8.64;48.66
77574;BME280;66710;48.868;9.080;2023-03-14T13:38:25;96560.75;;;8.58;49.07
77574;BME280;66710;48.868;9.080;2023-03-14T13:40:54;96583.69;;;8.51;49.31
77574;BME280;66710;48.868;9.080;2023-03-14T13:43:27;96588.81;;;8.53;49.72
77574;BME280;66710;48.868;9.080;2023-03-14T13:46:01;96584.75;;;8.50;49.14
77574;BME280;66710;48.868;9.080;2023-03-14T13:48:28;96619.03;;;8.46;49.47
77574;BME280;66710;48.868;9.080;2023-03-14T13:51:16;96613.53;;;8.51;50.14
77574;BME280;66710;48.868;9.080;2023-03-14T13:53:49;96629.38;;;8.44;48.83
77574;BME280;66710;48.868;9.080;2023-03-14T13:56:19;96622.56;;;8.42;48.79
77574;BME280;66710;48.868;9.080;2023-03-14T13:58:45;96621.91;;;8.31;47.35